Time;durP1;ratioP1;P1;durP2;ratioP2;P2;SDS_P1;SDS_P2;PMS_P1;PMS_P2;Temp;Humidity;BMP_temperature;BMP_pressure;BME280_temperature;BME280_humidity;BME280_pressure;Samples;Min_cycle;Max_cycle;Signal;HPM_P1;HPM_P2
2022/09/13 00:00:54;;;;;;;4.43;0.93;;;22.70;96.70;;;;;;5041916;28;20413;-78
2022/09/13 00:03:24;;;;;;;2.10;0.80;;;22.60;96.70;;;;;;5041028;28;20103;-78
2022/09/13 00:05:52;;;;;;;2.90;0.88;;;22.60;96.70;;;;;;5043135;28;20120;-78
2022/09/13 00:08:20;;;;;;;4.70;0.75;;;22.40;96.70;;;;;;5038943;28;20049;-79
2022/09/13 00:10:48;;;;;;;6.38;1.13;;;22.30;96.70;;;;;;5040828;28;20052;-78
2022/09/13 00:13:17;;;;;;;2.22;0.80;;;22.40;96.70;;;;;;5036669;28;20049;-79
2022/09/13 00:15:46;;;;;;;2.90;0.98;;;22.40;96.70;;;;;;5034394;28;20108;-79
2022/09/13 00:18:15;;;;;;;2.70;1.10;;;22.40;96.70;;;;;;5039950;28;20403;-79
2022/09/13 00:20:45;;;;;;;4.80;0.95;;;22.40;96.70;;;;;;5017898;28;20065;-78
2022/09/13 00:23:14;;;;;;;3.15;0.98;;;22.50;96.70;;;;;;5039239;28;20041;-79
2022/09/13 00:25:42;;;;;;;4.00;1.00;;;22.60;96.70;;;;;;5039149;28;20080;-78
2022/09/13 00:28:10;;;;;;;4.10;0.95;;;22.50;96.70;;;;;;5042142;28;20437;-79
2022/09/13 00:30:38;;;;;;;2.58;1.10;;;22.20;96.70;;;;;;5040867;28;20430;-79
2022/09/13 00:33:06;;;;;;;1.15;0.63;;;22.20;96.70;;;;;;5042227;28;20148;-78
2022/09/13 00:35:34;;;;;;;1.50;0.68;;;22.40;96.70;;;;;;5041785;28;20516;-78
2022/09/13 00:38:04;;;;;;;1.83;0.77;;;22.40;96.70;;;;;;5020626;28;20067;-80
2022/09/13 00:40:36;;;;;;;1.77;0.90;;;22.50;96.70;;;;;;5040470;28;20045;-78
2022/09/13 00:43:11;;;;;;;3.25;1.00;;;22.30;96.70;;;;;;5043025;28;20076;-78
2022/09/13 00:45:39;;;;;;;3.80;0.93;;;22.00;96.70;;;;;;5037677;28;20048;-78
2022/09/13 00:48:14;;;;;;;3.08;0.93;;;22.10;96.70;;;;;;5044183;28;20402;-78
2022/09/13 00:50:46;;;;;;;4.13;1.08;;;22.10;96.70;;;;;;5039187;28;20188;-79
2022/09/13 00:53:19;;;;;;;2.97;1.00;;;22.10;96.70;;;;;;5043534;28;20549;-78
2022/09/13 00:55:52;;;;;;;3.53;1.23;;;22.10;96.70;;;;;;5041630;28;20053;-78
2022/09/13 00:58:24;;;;;;;3.17;0.80;;;22.10;96.70;;;;;;5041814;28;20049;-78
2022/09/13 01:00:54;;;;;;;2.60;0.82;;;22.20;96.70;;;;;;5037994;28;20049;-78
2022/09/13 01:03:25;;;;;;;1.67;0.65;;;22.20;96.70;;;;;;5043602;28;20048;-78
2022/09/13 01:05:58;;;;;;;2.53;1.10;;;22.20;96.70;;;;;;5042094;28;20049;-77
2022/09/13 01:08:31;;;;;;;2.60;0.90;;;22.10;96.70;;;;;;5039482;28;20049;-78
2022/09/13 01:11:02;;;;;;;2.65;0.90;;;22.10;96.70;;;;;;5040623;28;20080;-78
2022/09/13 01:13:33;;;;;;;3.45;0.90;;;22.00;96.70;;;;;;5041458;28;20045;-79
2022/09/13 01:16:02;;;;;;;3.03;1.08;;;21.90;96.70;;;;;;5042353;28;20049;-79
2022/09/13 01:18:30;;;;;;;8.18;1.88;;;22.00;96.70;;;;;;5041450;28;20045;-79
2022/09/13 01:21:28;;;;;;;2.28;0.90;;;22.10;96.70;;;;;;5042996;28;20055;-79
2022/09/13 01:24:13;;;;;;;3.88;0.90;;;22.00;96.70;;;;;;5038111;28;20053;-79
2022/09/13 01:27:08;;;;;;;3.15;0.80;;;22.00;96.70;;;;;;5044618;28;20037;-78
2022/09/13 01:29:59;;;;;;;3.58;1.05;;;22.00;96.70;;;;;;5038947;28;20156;-78
2022/09/13 01:32:37;;;;;;;2.30;0.82;;;21.90;96.70;;;;;;5043127;28;20127;-78
2022/09/13 01:35:17;;;;;;;2.47;0.80;;;21.90;96.70;;;;;;5044216;28;20041;-79
2022/09/13 01:37:53;;;;;;;2.13;0.90;;;21.70;96.70;;;;;;5044894;28;20465;-78
2022/09/13 01:40:31;;;;;;;;;;;21.70;96.70;;;;;;5043602;28;20146;-78
2022/09/13 01:43:28;;;;;;;2.88;1.33;;;21.70;96.70;;;;;;5042705;28;20281;-78
2022/09/13 01:46:04;;;;;;;3.30;0.90;;;21.70;96.70;;;;;;5044186;28;20479;-78
2022/09/13 01:48:48;;;;;;;1.77;0.70;;;21.60;96.70;;;;;;5043670;28;20051;-79
2022/09/13 01:51:25;;;;;;;2.38;0.77;;;21.50;96.70;;;;;;5038328;28;20049;-79
2022/09/13 01:54:08;;;;;;;1.63;0.80;;;21.50;96.70;;;;;;5045063;28;20075;-79
2022/09/13 01:56:42;;;;;;;4.65;1.02;;;21.50;96.70;;;;;;5043819;28;20144;-78
2022/09/13 01:59:16;;;;;;;3.25;1.00;;;21.50;96.70;;;;;;5045479;28;20049;-78
2022/09/13 02:01:50;;;;;;;1.30;0.70;;;21.50;96.70;;;;;;5044387;28;20052;-78
2022/09/13 02:04:23;;;;;;;2.40;0.70;;;21.50;96.70;;;;;;5046668;28;20066;-78
2022/09/13 02:06:57;;;;;;;2.47;0.88;;;21.50;96.70;;;;;;5035606;28;20053;-79
2022/09/13 02:09:27;;;;;;;2.55;0.70;;;21.60;96.70;;;;;;5045120;28;20049;-78
2022/09/13 02:12:02;;;;;;;1.98;0.60;;;21.60;96.70;;;;;;5027914;28;20053;-78
2022/09/13 02:14:34;;;;;;;3.28;0.88;;;21.60;96.70;;;;;;5037992;28;20048;-79
2022/09/13 02:17:06;;;;;;;3.10;0.93;;;21.50;96.70;;;;;;5038832;28;20061;-79
2022/09/13 02:19:42;;;;;;;3.08;0.70;;;21.50;96.70;;;;;;5040056;28;20044;-78
2022/09/13 02:22:15;;;;;;;2.63;0.70;;;21.50;96.70;;;;;;5041728;28;20457;-78
2022/09/13 02:24:47;;;;;;;2.97;0.82;;;21.40;96.70;;;;;;5044566;28;20498;-78
2022/09/13 02:27:22;;;;;;;1.92;0.90;;;21.40;96.70;;;;;;5044063;28;20041;-78
2022/09/13 02:29:55;;;;;;;3.35;0.85;;;21.30;96.70;;;;;;5043945;28;20052;-78
2022/09/13 02:32:28;;;;;;;4.05;1.17;;;21.40;96.70;;;;;;5044475;28;20049;-78
2022/09/13 02:35:03;;;;;;;4.07;1.48;;;21.40;96.70;;;;;;5045536;28;20115;-78
2022/09/13 02:37:35;;;;;;;3.33;0.90;;;21.20;96.70;;;;;;5039355;28;20044;-78
2022/09/13 02:40:07;;;;;;;2.58;0.90;;;21.20;96.70;;;;;;5042337;28;20076;-78
2022/09/13 02:42:40;;;;;;;4.15;1.45;;;21.30;96.70;;;;;;5043339;28;20147;-78
2022/09/13 02:45:10;;;;;;;3.40;1.00;;;21.30;96.70;;;;;;5040777;28;20049;-78
2022/09/13 02:47:44;;;;;;;3.50;1.17;;;21.20;96.70;;;;;;5045171;28;20045;-77
2022/09/13 02:50:39;;;;;;;1.40;0.60;;;21.20;96.70;;;;;;5042351;28;20461;-78
2022/09/13 02:53:17;;;;;;;4.47;1.00;;;21.10;96.70;;;;;;5045084;28;20052;-78
2022/09/13 02:55:52;;;;;;;3.35;1.10;;;21.10;96.70;;;;;;5038498;28;20045;-78
2022/09/13 02:58:27;;;;;;;2.83;1.08;;;21.10;96.70;;;;;;5039521;28;20479;-78
2022/09/13 03:00:55;;;;;;;3.47;1.27;;;21.10;96.70;;;;;;5041952;28;20044;-78
2022/09/13 03:03:24;;;;;;;3.35;1.20;;;21.20;96.70;;;;;;5043235;28;20041;-78
2022/09/13 03:05:53;;;;;;;1.65;0.88;;;21.10;96.70;;;;;;5041041;28;20053;-78
2022/09/13 03:08:23;;;;;;;4.43;1.45;;;21.10;96.70;;;;;;5044099;28;20065;-78
2022/09/13 03:11:03;;;;;;;2.72;0.93;;;21.00;96.70;;;;;;5039927;28;20044;-78
2022/09/13 03:13:52;;;;;;;2.30;0.90;;;21.10;96.70;;;;;;5044224;28;20041;-79
2022/09/13 03:16:36;;;;;;;3.97;0.90;;;21.10;96.70;;;;;;5027145;28;20041;-78
2022/09/13 03:19:25;;;;;;;2.25;0.82;;;21.10;96.70;;;;;;5042872;28;20106;-79
2022/09/13 03:22:15;;;;;;;3.45;0.98;;;20.90;96.70;;;;;;5042918;28;20064;-79
2022/09/13 03:24:51;;;;;;;4.30;0.85;;;20.90;96.70;;;;;;5042787;28;20634;-78
2022/09/13 03:27:28;;;;;;;4.57;1.25;;;20.90;96.70;;;;;;5043693;28;20088;-79
2022/09/13 03:30:02;;;;;;;1.95;0.73;;;20.90;96.70;;;;;;5037509;28;20057;-78
2022/09/13 03:32:40;;;;;;;1.35;1.00;;;20.90;96.70;;;;;;5042872;28;20056;-79
2022/09/13 03:35:20;;;;;;;3.53;1.20;;;20.80;96.70;;;;;;5040749;28;20049;-78
2022/09/13 03:37:58;;;;;;;3.67;0.90;;;20.90;96.70;;;;;;5025958;28;20052;-80
2022/09/13 03:40:36;;;;;;;2.63;0.90;;;20.70;96.70;;;;;;5038627;28;20047;-79
2022/09/13 03:43:10;;;;;;;2.45;0.85;;;20.70;96.70;;;;;;5042907;28;20049;-79
2022/09/13 03:45:41;;;;;;;3.90;0.90;;;20.70;96.70;;;;;;5025855;28;20052;-78
2022/09/13 03:48:11;;;;;;;3.63;0.95;;;20.60;96.70;;;;;;5042628;28;20112;-78
2022/09/13 03:50:40;;;;;;;2.22;0.63;;;20.60;96.70;;;;;;5042648;28;20080;-79
2022/09/13 03:53:12;;;;;;;3.42;0.80;;;20.50;96.70;;;;;;5041655;28;20041;-78
2022/09/13 03:55:42;;;;;;;2.85;0.85;;;20.60;96.70;;;;;;5044550;28;20590;-79
2022/09/13 03:58:12;;;;;;;2.63;0.90;;;20.70;96.70;;;;;;5043694;28;20120;-78
2022/09/13 04:00:40;;;;;;;3.60;1.15;;;20.60;96.70;;;;;;5042538;28;20051;-78
2022/09/13 04:03:09;;;;;;;1.48;0.73;;;20.50;96.70;;;;;;5039938;28;20128;-78
2022/09/13 04:05:37;;;;;;;2.30;0.88;;;20.60;96.70;;;;;;5042677;28;20040;-78
2022/09/13 04:08:07;;;;;;;3.13;0.80;;;20.50;96.70;;;;;;5041046;28;20387;-78
2022/09/13 04:10:39;;;;;;;3.22;1.27;;;20.50;96.70;;;;;;5042321;28;20053;-78
2022/09/13 04:13:07;;;;;;;2.03;1.00;;;20.40;96.70;;;;;;5038783;28;20495;-78
2022/09/13 04:15:35;;;;;;;1.50;1.13;;;20.40;96.70;;;;;;5042249;28;20121;-78
2022/09/13 04:18:04;;;;;;;2.60;1.05;;;20.30;96.70;;;;;;5037755;28;20051;-79
2022/09/13 04:20:32;;;;;;;4.10;1.65;;;20.30;96.70;;;;;;5039039;28;20048;-78
2022/09/13 04:23:00;;;;;;;3.35;1.00;;;20.30;96.70;;;;;;5037231;28;20056;-78
2022/09/13 04:25:28;;;;;;;3.17;1.50;;;20.30;96.70;;;;;;5026158;28;20048;-79
2022/09/13 04:27:58;;;;;;;4.60;1.08;;;20.30;96.70;;;;;;5040128;28;20547;-77
2022/09/13 04:30:27;;;;;;;2.15;0.80;;;20.20;96.70;;;;;;5039602;28;20557;-78
2022/09/13 04:32:58;;;;;;;3.30;1.00;;;20.20;96.70;;;;;;5044303;28;20037;-79
2022/09/13 04:35:27;;;;;;;3.22;0.90;;;20.20;96.70;;;;;;5041476;28;20037;-78
2022/09/13 04:37:58;;;;;;;4.38;1.42;;;20.30;96.70;;;;;;5034873;28;20057;-79
2022/09/13 04:40:26;;;;;;;3.83;0.95;;;20.30;96.70;;;;;;5041815;28;20037;-79
2022/09/13 04:42:54;;;;;;;1.90;1.13;;;20.00;96.70;;;;;;5042515;28;20068;-78
2022/09/13 04:45:24;;;;;;;3.72;1.02;;;19.90;96.70;;;;;;5041555;28;20098;-78
2022/09/13 04:47:52;;;;;;;3.15;1.13;;;19.90;96.70;;;;;;5039616;28;20127;-78
2022/09/13 04:50:21;;;;;;;2.45;1.33;;;20.00;96.70;;;;;;5020708;28;20107;-78
2022/09/13 04:52:50;;;;;;;4.13;1.30;;;20.00;96.70;;;;;;5042233;28;20102;-80
2022/09/13 04:55:18;;;;;;;2.53;0.90;;;20.10;96.70;;;;;;5041512;28;20546;-78
2022/09/13 04:57:46;;;;;;;5.35;1.25;;;20.10;96.70;;;;;;5048247;28;20061;-78
2022/09/13 05:00:15;;;;;;;2.38;0.80;;;20.10;96.70;;;;;;5043262;28;20414;-78
2022/09/13 05:02:44;;;;;;;3.38;1.00;;;20.20;96.70;;;;;;5046036;28;20399;-78
2022/09/13 05:05:13;;;;;;;4.07;1.40;;;20.20;96.70;;;;;;5045860;28;20469;-78
2022/09/13 05:07:41;;;;;;;5.50;1.48;;;20.10;96.70;;;;;;5041332;28;20045;-78
2022/09/13 05:10:09;;;;;;;2.42;0.80;;;20.00;96.70;;;;;;5043215;28;20049;-78
2022/09/13 05:12:40;;;;;;;2.05;1.13;;;20.10;96.70;;;;;;5047832;28;20041;-80
2022/09/13 05:15:11;;;;;;;2.92;0.90;;;20.10;96.70;;;;;;5042757;28;20049;-78
2022/09/13 05:17:39;;;;;;;4.07;1.13;;;20.10;96.70;;;;;;5046386;28;20060;-78
2022/09/13 05:20:10;;;;;;;1.92;0.93;;;20.00;96.70;;;;;;5042825;28;20068;-78
2022/09/13 05:22:38;;;;;;;3.08;1.08;;;20.10;96.70;;;;;;5022430;28;20072;-78
2022/09/13 05:25:07;;;;;;;2.67;0.85;;;20.30;96.70;;;;;;5026376;28;20457;-78
2022/09/13 05:27:35;;;;;;;3.40;1.05;;;20.30;96.70;;;;;;5045251;28;20119;-78
2022/09/13 05:30:04;;;;;;;3.00;1.02;;;20.20;96.70;;;;;;5021014;28;20068;-77
2022/09/13 05:32:32;;;;;;;4.60;1.02;;;20.10;96.70;;;;;;5036902;28;20437;-80
2022/09/13 05:35:00;;;;;;;4.10;1.50;;;20.20;96.70;;;;;;5043385;28;20041;-80
2022/09/13 05:37:30;;;;;;;5.43;1.70;;;20.10;96.70;;;;;;5044437;28;20053;-81
2022/09/13 05:39:58;;;;;;;2.53;1.40;;;20.10;96.70;;;;;;5043105;28;20058;-79
2022/09/13 05:42:38;;;;;;;6.40;1.98;;;20.20;96.70;;;;;;5042297;28;20045;-80
2022/09/13 05:45:08;;;;;;;4.53;1.40;;;20.20;96.70;;;;;;5046911;28;20043;-79
2022/09/13 05:47:36;;;;;;;3.28;1.73;;;20.10;96.70;;;;;;5044864;28;20051;-79
2022/09/13 05:50:05;;;;;;;2.97;1.40;;;20.00;96.70;;;;;;5022283;28;20042;-80
2022/09/13 05:52:51;;;;;;;3.10;1.40;;;20.10;96.70;;;;;;5027064;28;20044;-79
2022/09/13 05:55:21;;;;;;;3.63;1.80;;;20.10;96.70;;;;;;5028455;28;20060;-80
2022/09/13 05:57:49;;;;;;;2.95;1.42;;;20.20;96.70;;;;;;5041974;28;20059;-79
2022/09/13 06:00:17;;;;;;;4.07;1.65;;;20.30;96.70;;;;;;5046243;28;20064;-78
2022/09/13 06:02:46;;;;;;;3.85;1.45;;;20.30;96.70;;;;;;5038866;28;20108;-78
2022/09/13 06:05:14;;;;;;;4.50;1.35;;;20.30;96.70;;;;;;5045448;28;20042;-78
2022/09/13 06:07:42;;;;;;;4.70;1.27;;;20.20;96.70;;;;;;5022492;28;20119;-79
2022/09/13 06:10:12;;;;;;;4.10;1.58;;;20.20;96.70;;;;;;5045133;28;20048;-79
2022/09/13 06:12:40;;;;;;;3.53;1.10;;;20.20;96.70;;;;;;5042117;28;20150;-79
2022/09/13 06:15:10;;;;;;;5.63;1.60;;;20.30;96.70;;;;;;5044668;28;20551;-79
2022/09/13 06:17:38;;;;;;;4.38;1.80;;;20.40;96.70;;;;;;5041516;28;20060;-78
2022/09/13 06:20:08;;;;;;;3.00;1.45;;;20.40;96.70;;;;;;5026459;28;20072;-79
2022/09/13 06:22:36;;;;;;;7.13;2.40;;;20.30;96.70;;;;;;5036033;28;20041;-79
2022/09/13 06:25:05;;;;;;;8.07;1.98;;;20.30;96.70;;;;;;5044896;28;20461;-79
2022/09/13 06:27:34;;;;;;;4.78;2.15;;;20.30;96.70;;;;;;5040745;28;20044;-79
2022/09/13 06:30:04;;;;;;;6.82;2.50;;;20.20;96.70;;;;;;5045475;28;20049;-79
2022/09/13 06:32:32;;;;;;;7.25;2.40;;;20.30;96.70;;;;;;5021270;28;20521;-79
2022/09/13 06:35:00;;;;;;;4.60;2.30;;;20.30;96.70;;;;;;5046161;28;20509;-79
2022/09/13 06:37:28;;;;;;;7.60;2.97;;;20.50;96.70;;;;;;5041409;28;20045;-79
2022/09/13 06:39:56;;;;;;;5.60;1.88;;;20.60;96.70;;;;;;5043707;28;20545;-80
2022/09/13 06:42:25;;;;;;;3.60;2.10;;;20.70;96.70;;;;;;5041213;28;20463;-80
2022/09/13 06:44:54;;;;;;;3.45;1.67;;;20.70;96.70;;;;;;5043118;28;20041;-80
2022/09/13 06:47:23;;;;;;;4.45;1.60;;;20.60;96.70;;;;;;5043857;28;20053;-79
2022/09/13 06:49:51;;;;;;;4.30;1.70;;;20.70;96.70;;;;;;5035677;28;20054;-79
2022/09/13 06:52:19;;;;;;;3.25;1.45;;;20.90;96.70;;;;;;5040577;28;20506;-79
2022/09/13 06:54:47;;;;;;;5.13;1.65;;;20.90;96.70;;;;;;5041128;28;20041;-78
2022/09/13 06:57:15;;;;;;;4.78;2.20;;;20.80;96.70;;;;;;5043874;28;20045;-79
2022/09/13 06:59:43;;;;;;;4.97;2.50;;;20.80;96.70;;;;;;5042660;28;20045;-80
2022/09/13 07:02:13;;;;;;;7.43;2.65;;;20.80;96.70;;;;;;5044597;28;20064;-78
2022/09/13 07:04:42;;;;;;;8.07;3.08;;;20.90;96.70;;;;;;5038683;28;20048;-79
2022/09/13 07:07:10;;;;;;;7.32;2.95;;;21.00;96.70;;;;;;5031667;28;20123;-79
2022/09/13 07:09:42;;;;;;;7.93;2.38;;;21.10;96.70;;;;;;5043202;28;20052;-79
2022/09/13 07:12:10;;;;;;;5.95;1.60;;;21.20;96.70;;;;;;5044018;28;20076;-80
2022/09/13 07:14:39;;;;;;;6.85;2.10;;;21.10;96.70;;;;;;5039965;28;20067;-79
2022/09/13 07:17:07;;;;;;;3.35;1.67;;;21.10;96.70;;;;;;5041260;28;20099;-80
2022/09/13 07:19:36;;;;;;;5.13;1.80;;;21.10;96.70;;;;;;5041627;28;20041;-79
2022/09/13 07:22:04;;;;;;;5.75;1.90;;;21.30;96.70;;;;;;5043543;28;20055;-79
2022/09/13 07:24:32;;;;;;;6.10;1.65;;;21.40;96.70;;;;;;5043223;28;20123;-80
2022/09/13 07:27:00;;;;;;;3.90;1.92;;;21.50;96.70;;;;;;5037653;28;20056;-79
2022/09/13 07:29:29;;;;;;;3.20;1.77;;;21.60;96.70;;;;;;5041555;28;20052;-79
2022/09/13 07:31:57;;;;;;;3.90;1.60;;;21.70;96.70;;;;;;5041143;28;20044;-79
2022/09/13 07:34:26;;;;;;;5.15;1.63;;;21.70;96.70;;;;;;5047247;28;20095;-79
2022/09/13 07:36:55;;;;;;;5.55;1.58;;;21.80;96.70;;;;;;5041095;28;20045;-80
2022/09/13 07:39:23;;;;;;;3.05;1.20;;;21.90;96.70;;;;;;5041637;28;20045;-79
2022/09/13 07:41:52;;;;;;;3.20;1.45;;;21.90;96.70;;;;;;5042165;28;20044;-79
2022/09/13 07:44:21;;;;;;;4.25;1.45;;;22.00;96.70;;;;;;5038051;28;20440;-79
2022/09/13 07:46:49;;;;;;;9.88;2.15;;;22.10;96.70;;;;;;5017773;28;20095;-79
2022/09/13 07:49:18;;;;;;;5.20;1.20;;;22.10;96.70;;;;;;5037111;28;20580;-80
2022/09/13 07:51:49;;;;;;;3.83;1.15;;;22.20;96.70;;;;;;5022629;28;20528;-79
2022/09/13 07:54:20;;;;;;;3.53;1.30;;;22.30;96.70;;;;;;5038045;28;20071;-80
2022/09/13 07:56:49;;;;;;;2.95;1.45;;;22.40;96.70;;;;;;5043857;28;20056;-78
2022/09/13 07:59:18;;;;;;;3.40;0.95;;;22.60;96.70;;;;;;5043131;28;20048;-78
2022/09/13 08:01:47;;;;;;;1.70;0.80;;;22.60;96.70;;;;;;5042082;28;20075;-80
2022/09/13 08:04:18;;;;;;;3.22;1.35;;;22.60;96.70;;;;;;5042877;28;20053;-80
2022/09/13 08:06:46;;;;;;;4.72;1.17;;;22.70;96.70;;;;;;5041394;28;20052;-79
2022/09/13 08:09:15;;;;;;;2.70;1.63;;;22.60;96.70;;;;;;5041318;28;20062;-80
2022/09/13 08:11:46;;;;;;;5.10;1.63;;;22.70;96.70;;;;;;5041807;28;21233;-80
2022/09/13 08:14:16;;;;;;;3.17;1.55;;;22.80;96.70;;;;;;5044166;28;20075;-79
2022/09/13 08:16:45;;;;;;;4.60;1.65;;;22.80;96.70;;;;;;5042066;28;20106;-79
2022/09/13 08:19:15;;;;;;;4.55;1.33;;;22.90;96.70;;;;;;5043499;28;20502;-79
2022/09/13 08:21:44;;;;;;;4.18;1.48;;;23.00;96.70;;;;;;5043209;28;20079;-81
2022/09/13 08:24:14;;;;;;;2.97;1.20;;;23.00;96.70;;;;;;5022940;28;20045;-79
2022/09/13 08:26:44;;;;;;;4.45;1.73;;;23.00;96.70;;;;;;5035904;28;20047;-79
2022/09/13 08:29:14;;;;;;;4.55;1.42;;;23.00;96.70;;;;;;5043150;28;20045;-79
2022/09/13 08:31:42;;;;;;;7.13;1.45;;;23.10;96.70;;;;;;5043728;28;20095;-79
2022/09/13 08:34:13;;;;;;;4.53;1.40;;;23.10;96.70;;;;;;5046384;28;20049;-79
2022/09/13 08:36:42;;;;;;;4.63;1.55;;;23.20;96.70;;;;;;5047159;28;20037;-80
2022/09/13 08:39:14;;;;;;;6.57;1.70;;;23.40;96.70;;;;;;5046718;28;20139;-79
2022/09/13 08:42:08;;;;;;;5.93;1.70;;;23.50;96.70;;;;;;5046859;28;20103;-79
2022/09/13 08:44:40;;;;;;;4.38;1.65;;;23.60;96.70;;;;;;5030468;28;20053;-79
2022/09/13 08:47:29;;;;;;;5.47;1.38;;;23.60;96.70;;;;;;5062299;28;20047;-79
2022/09/13 08:50:03;;;;;;;5.65;1.50;;;23.70;96.70;;;;;;5044759;28;20041;-80
2022/09/13 08:52:35;;;;;;;4.78;1.45;;;23.80;96.70;;;;;;5044479;28;20082;-79
2022/09/13 08:55:23;;;;;;;2.78;1.38;;;23.90;96.70;;;;;;5044377;28;20526;-79
2022/09/13 08:58:00;;;;;;;6.93;1.50;;;24.10;96.70;;;;;;5046083;28;20048;-79
2022/09/13 09:00:34;;;;;;;4.65;1.38;;;24.10;96.70;;;;;;5044948;28;20067;-79
2022/09/13 09:03:14;;;;;;;4.00;1.25;;;24.10;96.70;;;;;;5026509;28;20045;-79
2022/09/13 09:05:49;;;;;;;4.22;1.30;;;24.10;96.70;;;;;;5025523;28;20044;-79
2022/09/13 09:08:30;;;;;;;3.40;1.33;;;24.20;96.70;;;;;;5045627;28;20106;-79
2022/09/13 09:11:06;;;;;;;3.50;0.98;;;24.20;96.70;;;;;;5046574;28;20041;-79
2022/09/13 09:13:40;;;;;;;5.10;1.98;;;24.30;96.70;;;;;;5046630;28;20518;-80
2022/09/13 09:16:24;;;;;;;4.57;1.38;;;24.40;96.70;;;;;;5043668;28;20045;-79
2022/09/13 09:18:58;;;;;;;9.10;2.50;;;24.50;96.70;;;;;;5046603;28;20045;-79
2022/09/13 09:21:27;;;;;;;7.13;1.60;;;24.60;96.70;;;;;;5046908;28;20064;-79
2022/09/13 09:23:55;;;;;;;3.95;1.23;;;24.70;96.70;;;;;;5028652;28;20045;-79
2022/09/13 09:26:31;;;;;;;3.47;1.08;;;24.70;96.70;;;;;;5038912;28;20129;-79
2022/09/13 09:29:10;;;;;;;5.00;1.23;;;24.80;96.70;;;;;;5044503;28;20114;-79
2022/09/13 09:31:44;;;;;;;3.72;1.10;;;24.80;96.70;;;;;;5040298;28;20051;-79
2022/09/13 09:34:21;;;;;;;3.33;1.25;;;24.80;96.70;;;;;;5047779;28;20104;-79
2022/09/13 09:37:00;;;;;;;3.05;0.93;;;24.90;96.70;;;;;;5043252;28;20052;-79
2022/09/13 09:39:38;;;;;;;4.35;1.10;;;25.00;96.70;;;;;;5044782;28;20052;-79
2022/09/13 09:42:12;;;;;;;2.42;0.98;;;25.20;96.70;;;;;;5061240;28;20069;-79
2022/09/13 09:44:45;;;;;;;4.82;1.20;;;25.30;96.70;;;;;;5026937;28;20041;-79
2022/09/13 09:47:17;;;;;;;6.78;1.58;;;25.40;96.70;;;;;;5042314;28;20049;-79
2022/09/13 09:50:08;;;;;;;3.78;1.30;;;25.40;96.70;;;;;;5040847;28;20426;-80
2022/09/13 09:52:41;;;;;;;4.35;1.52;;;25.50;96.70;;;;;;5037519;28;20055;-79
2022/09/13 09:55:19;;;;;;;8.38;1.92;;;25.70;96.70;;;;;;5046880;28;20067;-79
2022/09/13 09:57:54;;;;;;;5.95;1.58;;;25.80;96.70;;;;;;5044842;28;20076;-80
2022/09/13 10:00:26;;;;;;;7.43;1.60;;;25.80;96.70;;;;;;5044829;28;20173;-78
2022/09/13 10:02:58;;;;;;;4.43;1.30;;;25.90;96.70;;;;;;5044627;28;20218;-78
2022/09/13 10:05:29;;;;;;;4.18;1.55;;;26.00;96.70;;;;;;5044932;28;20134;-80
2022/09/13 10:08:01;;;;;;;4.25;1.13;;;26.10;96.70;;;;;;5043781;28;20045;-79
2022/09/13 10:10:37;;;;;;;2.83;0.98;;;26.20;96.70;;;;;;5040471;28;20044;-80
2022/09/13 10:13:13;;;;;;;3.53;0.98;;;26.20;96.70;;;;;;5039332;28;20044;-79
2022/09/13 10:15:56;;;;;;;3.05;0.98;;;26.30;96.70;;;;;;5041558;28;20510;-80
2022/09/13 10:18:26;;;;;;;5.25;1.33;;;26.50;96.70;;;;;;5045409;28;20065;-80
2022/09/13 10:21:23;;;;;;;6.72;1.15;;;26.50;96.70;;;;;;5045970;28;20471;-79
2022/09/13 10:24:12;;;;;;;4.95;1.17;;;26.70;96.70;;;;;;5035150;28;20499;-80
2022/09/13 10:26:42;;;;;;;2.10;0.98;;;26.70;96.70;;;;;;5037678;28;20045;-79
2022/09/13 10:29:15;;;;;;;3.95;1.15;;;26.90;96.70;;;;;;5046349;28;20114;-80
2022/09/13 10:31:52;;;;;;;3.60;0.90;;;27.10;96.70;;;;;;5045092;28;20041;-79
2022/09/13 10:34:28;;;;;;;2.38;0.82;;;27.30;96.70;;;;;;5048836;28;20171;-79
2022/09/13 10:37:00;;;;;;;3.92;0.90;;;27.30;96.70;;;;;;5041443;28;20045;-80
2022/09/13 10:39:33;;;;;;;4.53;1.00;;;27.30;96.70;;;;;;5046443;28;20442;-79
2022/09/13 10:42:04;;;;;;;5.13;1.00;;;27.40;96.70;;;;;;5042121;28;20045;-80
2022/09/13 10:44:40;;;;;;;2.13;0.75;;;27.50;96.70;;;;;;5037321;28;20065;-80
2022/09/13 10:47:17;;;;;;;4.18;0.70;;;27.60;96.70;;;;;;5040908;28;20049;-79
2022/09/13 10:49:51;;;;;;;4.97;1.05;;;27.50;96.70;;;;;;5041753;28;20057;-79
2022/09/13 10:52:29;;;;;;;3.35;0.60;;;27.70;96.70;;;;;;5007383;28;20066;-79
2022/09/13 10:55:24;;;;;;;4.40;1.10;;;27.60;96.70;;;;;;5017317;28;20045;-79
2022/09/13 10:57:55;;;;;;;4.28;1.08;;;27.60;96.70;;;;;;5010740;28;20049;-79
2022/09/13 11:00:31;;;;;;;4.20;0.70;;;27.70;96.70;;;;;;5015311;28;20241;-79
2022/09/13 11:03:26;;;;;;;3.75;0.90;;;27.90;96.70;;;;;;4993792;28;20046;-79
2022/09/13 11:06:04;;;;;;;2.28;0.60;;;27.90;96.70;;;;;;5006269;28;20069;-79
2022/09/13 11:08:46;;;;;;;1.23;0.60;;;27.90;96.70;;;;;;5005336;28;20057;-80
2022/09/13 11:11:23;;;;;;;4.20;0.60;;;27.80;96.70;;;;;;5009864;28;20057;-79
2022/09/13 11:14:04;;;;;;;1.27;0.43;;;28.00;96.70;;;;;;5019329;28;20152;-79
2022/09/13 11:16:46;;;;;;;2.22;0.60;;;28.30;96.70;;;;;;5009764;28;20545;-79
2022/09/13 11:19:45;;;;;;;3.55;0.50;;;28.50;96.70;;;;;;5005978;28;20056;-79
2022/09/13 11:22:33;;;;;;;3.60;0.75;;;28.60;96.70;;;;;;4983013;28;20423;-79
2022/09/13 11:25:12;;;;;;;4.35;0.90;;;28.70;96.70;;;;;;5031784;28;20573;-80
2022/09/13 11:27:52;;;;;;;2.33;0.80;;;28.70;96.70;;;;;;5042813;28;20045;-80
2022/09/13 11:30:22;;;;;;;4.32;0.60;;;28.80;96.70;;;;;;5036359;28;20098;-79
2022/09/13 11:33:15;;;;;;;5.28;0.73;;;29.00;96.70;;;;;;5043012;28;20053;-79
2022/09/13 11:35:54;;;;;;;1.75;0.50;;;29.10;96.70;;;;;;5041368;28;20137;-80
2022/09/13 11:38:35;;;;;;;1.90;0.50;;;29.20;96.70;;;;;;5040532;28;20041;-79
2022/09/13 11:41:15;;;;;;;3.45;0.57;;;29.30;96.70;;;;;;5041825;28;20053;-79
2022/09/13 11:43:59;;;;;;;2.95;0.40;;;29.30;96.70;;;;;;5039360;28;20106;-79
2022/09/13 11:46:38;;;;;;;1.55;0.50;;;29.40;96.70;;;;;;5042894;28;20068;-79
2022/09/13 11:49:44;;;;;;;2.03;0.40;;;29.70;96.70;;;;;;5042066;28;20045;-78
2022/09/13 11:52:25;;;;;;;1.48;0.50;;;29.80;96.70;;;;;;4989005;28;20050;-79
2022/09/13 11:55:07;;;;;;;2.85;0.55;;;29.80;96.70;;;;;;5043664;28;20407;-79
2022/09/13 11:57:41;;;;;;;2.53;0.63;;;29.90;96.70;;;;;;5041011;28;20052;-79
2022/09/13 12:00:19;;;;;;;3.13;0.80;;;29.90;96.70;;;;;;5041216;28;20082;-80
2022/09/13 12:02:57;;;;;;;1.75;0.55;;;29.80;96.70;;;;;;5031759;28;20106;-80
2022/09/13 12:05:30;;;;;;;1.48;0.50;;;29.90;96.70;;;;;;5042866;28;20053;-79
2022/09/13 12:08:05;;;;;;;2.05;0.50;;;30.00;96.70;;;;;;5039366;28;20052;-79
2022/09/13 12:10:39;;;;;;;1.13;0.40;;;30.00;96.70;;;;;;5042349;28;20055;-79
2022/09/13 12:13:15;;;;;;;1.58;0.55;;;30.10;96.70;;;;;;5033972;28;20513;-80
2022/09/13 12:15:46;;;;;;;1.33;0.50;;;30.20;96.70;;;;;;5042694;28;20049;-79
2022/09/13 12:18:19;;;;;;;3.90;0.60;;;30.10;96.70;;;;;;5040628;28;20056;-79
2022/09/13 12:20:53;;;;;;;1.83;0.40;;;30.20;96.70;;;;;;5042245;28;20051;-79
2022/09/13 12:23:29;;;;;;;2.03;0.60;;;30.20;96.70;;;;;;5031547;28;20041;-79
2022/09/13 12:26:02;;;;;;;3.75;0.60;;;30.20;96.70;;;;;;5023866;28;20187;-79
2022/09/13 12:28:36;;;;;;;1.33;0.47;;;30.30;96.70;;;;;;5041589;28;20049;-79
2022/09/13 12:31:09;;;;;;;2.60;0.50;;;30.20;96.70;;;;;;5042449;28;20573;-80
2022/09/13 12:33:39;;;;;;;3.83;0.65;;;30.40;96.70;;;;;;5039119;28;20060;-79
2022/09/13 12:36:39;;;;;;;3.42;0.50;;;30.50;96.70;;;;;;5039530;28;20076;-80
2022/09/13 12:39:35;;;;;;;1.92;0.45;;;30.60;96.70;;;;;;5019310;28;20124;-78
2022/09/13 12:42:46;;;;;;;2.70;0.53;;;30.50;96.70;;;;;;5040167;28;20052;-79
2022/09/13 12:45:40;;;;;;;2.33;0.60;;;30.50;96.70;;;;;;5037577;28;20079;-78
2022/09/13 12:48:21;;;;;;;2.97;0.68;;;30.70;96.70;;;;;;5040092;28;20804;-80
2022/09/13 12:51:04;;;;;;;1.33;0.40;;;30.70;96.70;;;;;;5041671;28;20516;-79
2022/09/13 12:54:13;;;;;;;1.50;0.55;;;30.60;95.40;;;;;;5042081;28;20064;-78
2022/09/13 12:57:01;;;;;;;1.30;0.45;;;30.70;95.30;;;;;;5019817;28;20080;-79
2022/09/13 12:59:51;;;;;;;1.40;0.50;;;30.80;96.40;;;;;;5041320;28;20041;-79
2022/09/13 13:02:29;;;;;;;2.15;0.57;;;30.80;96.70;;;;;;5022304;28;20051;-79
2022/09/13 13:05:01;;;;;;;2.17;0.47;;;30.90;96.70;;;;;;5040150;28;20573;-79
2022/09/13 13:07:32;;;;;;;2.40;0.60;;;30.90;95.50;;;;;;5042880;28;20414;-79
2022/09/13 13:10:02;;;;;;;2.50;0.50;;;31.00;96.70;;;;;;5043071;28;20131;-79
2022/09/13 13:12:35;;;;;;;2.70;0.75;;;31.00;96.70;;;;;;5038945;28;20438;-79
2022/09/13 13:15:27;;;;;;;3.72;1.10;;;30.90;96.70;;;;;;5038575;28;20042;-78
2022/09/13 13:17:56;;;;;;;2.65;0.40;;;30.90;96.70;;;;;;5039250;28;20080;-79
2022/09/13 13:59:32;;;;;;;3.17;0.90;;;31.20;96.70;;;;;;5126800;27;20868;-79
2022/09/13 14:02:01;;;;;;;2.72;1.10;;;31.80;96.70;;;;;;5118306;28;20046;-79